Time,TemperatureF,DewpointF,PressureIn,WindDirection,WindDirectionDegrees,WindSpeedMPH,WindSpeedGustMPH,Humidity,HourlyPrecipIn,Conditions,Clouds,dailyrainin,SoftwareType,DateUTC
2013-04-13 00:08:00,52.4,49.6,29.98,North,360,0.0,0.0,90,0.00,,,0.00,Wunderground v.1.15,2013-04-13 05:08:00,
2013-04-13 00:13:00,52.4,49.6,29.98,North,360,0.0,0.0,90,0.00,,,0.00,Wunderground v.1.15,2013-04-13 05:13:00,
2013-04-13 00:18:00,52.4,49.6,29.98,North,360,0.0,0.0,90,0.00,,,0.00,Wunderground v.1.15,2013-04-13 05:18:00,
2013-04-13 00:23:00,52.2,49.1,29.98,North,360,0.0,0.0,89,0.00,,,0.00,Wunderground v.1.15,2013-04-13 05:23:00,
2013-04-13 00:28:00,52.1,49.3,29.98,North,360,0.0,0.0,90,0.00,,,0.00,Wunderground v.1.15,2013-04-13 05:28:00,
2013-04-13 00:33:00,52.0,49.2,29.98,North,360,0.0,0.0,90,0.00,,,0.00,Wunderground v.1.15,2013-04-13 05:33:00,
2013-04-13 00:43:00,51.5,49.0,29.97,North,360,0.0,0.0,91,0.00,,,0.00,Wunderground v.1.15,2013-04-13 05:43:00,
2013-04-13 00:48:00,51.2,48.7,29.97,North,360,0.0,0.0,91,0.00,,,0.00,Wunderground v.1.15,2013-04-13 05:48:00,
2013-04-13 00:53:00,51.0,48.8,29.97,North,360,0.0,0.0,92,0.00,,,0.00,Wunderground v.1.15,2013-04-13 05:53:00,
2013-04-13 00:58:00,51.2,48.7,29.97,North,360,0.0,0.0,91,0.00,,,0.00,Wunderground v.1.15,2013-04-13 05:58:00,
2013-04-13 01:03:00,51.4,48.6,29.97,North,360,0.0,0.0,90,0.00,,,0.00,Wunderground v.1.15,2013-04-13 06:03:00,
2013-04-13 01:08:00,51.4,48.6,29.98,North,360,0.0,0.0,90,0.00,,,0.00,Wunderground v.1.15,2013-04-13 06:08:00,
2013-04-13 01:18:00,51.2,48.4,29.97,North,360,0.0,0.0,90,0.00,,,0.00,Wunderground v.1.15,2013-04-13 06:18:00,
2013-04-13 01:23:00,51.2,48.4,29.97,North,360,0.0,0.0,90,0.00,,,0.00,Wunderground v.1.15,2013-04-13 06:23:00,
2013-04-13 01:28:00,51.1,48.3,29.97,North,360,0.0,0.0,90,0.00,,,0.00,Wunderground v.1.15,2013-04-13 06:28:00,
2013-04-13 01:33:00,51.0,48.2,29.97,North,360,0.0,0.0,90,0.00,,,0.00,Wunderground v.1.15,2013-04-13 06:33:00,
2013-04-13 01:38:00,50.7,47.6,29.97,North,360,0.0,0.0,89,0.00,,,0.00,Wunderground v.1.15,2013-04-13 06:38:00,
2013-04-13 01:48:00,50.5,47.4,29.97,North,360,0.0,0.0,89,0.00,,,0.00,Wunderground v.1.15,2013-04-13 06:48:00,
2013-04-13 01:53:00,50.4,47.6,29.97,North,360,0.0,0.0,90,0.00,,,0.00,Wunderground v.1.15,2013-04-13 06:53:00,
2013-04-13 01:58:00,50.3,47.5,29.97,North,360,0.0,0.0,90,0.00,,,0.00,Wunderground v.1.15,2013-04-13 06:58:00,
2013-04-13 02:03:00,50.1,47.6,29.97,North,360,0.0,0.0,91,0.00,,,0.00,Wunderground v.1.15,2013-04-13 07:03:00,
2013-04-13 02:13:00,49.5,46.7,29.97,North,360,0.0,0.0,90,0.00,,,0.00,Wunderground v.1.15,2013-04-13 07:13:00,
2013-04-13 02:18:00,49.4,46.6,29.97,North,360,0.0,0.0,90,0.00,,,0.00,Wunderground v.1.15,2013-04-13 07:18:00,
2013-04-13 02:28:00,49.2,46.1,29.97,North,360,0.0,0.0,89,0.00,,,0.00,Wunderground v.1.15,2013-04-13 07:28:00,
2013-04-13 02:33:00,49.1,45.7,29.97,North,360,0.0,0.0,88,0.00,,,0.00,Wunderground v.1.15,2013-04-13 07:33:00,
2013-04-13 02:38:00,49.2,46.4,29.97,North,360,0.0,0.0,90,0.00,,,0.00,Wunderground v.1.15,2013-04-13 07:38:00,
2013-04-13 02:48:00,49.1,46.6,29.97,North,360,0.0,0.0,91,0.00,,,0.00,Wunderground v.1.15,2013-04-13 07:48:00,
2013-04-13 02:53:00,49.0,46.8,29.97,North,360,0.0,0.0,92,0.00,,,0.00,Wunderground v.1.15,2013-04-13 07:53:00,
2013-04-13 02:58:00,48.6,46.4,29.97,North,360,0.0,0.0,92,0.00,,,0.00,Wunderground v.1.15,2013-04-13 07:58:00,
2013-04-13 03:03:00,48.1,45.9,29.97,North,360,0.0,0.0,92,0.00,,,0.00,Wunderground v.1.15,2013-04-13 08:03:00,
2013-04-13 03:13:00,47.7,45.8,29.96,North,360,0.0,0.0,93,0.00,,,0.00,Wunderground v.1.15,2013-04-13 08:13:00,
2013-04-13 03:18:00,47.5,45.6,29.96,North,360,0.0,0.0,93,0.00,,,0.00,Wunderground v.1.15,2013-04-13 08:18:00,
2013-04-13 03:28:00,47.1,45.5,29.96,North,360,0.0,0.0,94,0.00,,,0.00,Wunderground v.1.15,2013-04-13 08:28:00,
2013-04-13 03:38:00,47.4,45.8,29.96,North,360,0.0,0.0,94,0.00,,,0.00,Wunderground v.1.15,2013-04-13 08:38:00,
2013-04-13 03:43:00,47.7,46.1,29.96,North,360,0.0,0.0,94,0.00,,,0.00,Wunderground v.1.15,2013-04-13 08:43:00,
2013-04-13 03:48:00,48.0,46.1,29.96,North,360,0.0,0.0,93,0.00,,,0.00,Wunderground v.1.15,2013-04-13 08:48:00,
2013-04-13 03:58:00,48.0,45.8,29.97,North,360,0.0,0.0,92,0.00,,,0.00,Wunderground v.1.15,2013-04-13 08:58:00,
2013-04-13 04:03:00,48.1,45.6,29.97,North,360,0.0,0.0,91,0.00,,,0.00,Wunderground v.1.15,2013-04-13 09:03:00,
2013-04-13 04:08:00,48.1,45.3,29.97,North,360,0.0,0.0,90,0.00,,,0.00,Wunderground v.1.15,2013-04-13 09:08:00,
2013-04-13 04:13:00,48.0,45.2,29.97,North,360,0.0,0.0,90,0.00,,,0.00,Wunderground v.1.15,2013-04-13 09:13:00,
2013-04-13 04:23:00,47.8,45.0,29.97,North,360,0.0,0.0,90,0.00,,,0.00,Wunderground v.1.15,2013-04-13 09:23:00,
2013-04-13 04:33:00,47.6,44.5,29.98,North,360,0.0,0.0,89,0.00,,,0.00,Wunderground v.1.15,2013-04-13 09:33:00,
2013-04-13 04:38:00,47.7,44.3,29.98,North,360,0.0,0.0,88,0.00,,,0.00,Wunderground v.1.15,2013-04-13 09:38:00,
2013-04-13 04:43:00,47.6,44.2,29.98,North,360,0.0,0.0,88,0.00,,,0.00,Wunderground v.1.15,2013-04-13 09:43:00,
2013-04-13 04:53:00,47.7,44.9,29.98,North,360,0.0,0.0,90,0.00,,,0.00,Wunderground v.1.15,2013-04-13 09:53:00,
2013-04-13 04:58:00,47.5,44.7,29.98,North,360,0.0,0.0,90,0.00,,,0.00,Wunderground v.1.15,2013-04-13 09:58:00,
2013-04-13 05:03:00,47.4,44.6,29.98,North,360,0.0,0.0,90,0.00,,,0.00,Wunderground v.1.15,2013-04-13 10:03:00,
2013-04-13 05:18:00,46.8,44.3,29.98,North,360,0.0,0.0,91,0.00,,,0.00,Wunderground v.1.15,2013-04-13 10:18:00,
2013-04-13 05:23:00,46.7,44.2,29.99,North,360,0.0,0.0,91,0.00,,,0.00,Wunderground v.1.15,2013-04-13 10:23:00,
2013-04-13 05:33:00,46.6,44.1,29.99,North,360,0.0,0.0,91,0.00,,,0.00,Wunderground v.1.15,2013-04-13 10:33:00,
2013-04-13 05:38:00,46.6,44.1,30.00,North,360,0.0,0.0,91,0.00,,,0.00,Wunderground v.1.15,2013-04-13 10:38:00,
2013-04-13 05:43:00,46.7,44.2,30.00,North,360,0.0,0.0,91,0.00,,,0.00,Wunderground v.1.15,2013-04-13 10:43:00,
2013-04-13 05:48:00,46.7,44.2,30.00,North,360,0.0,0.0,91,0.00,,,0.00,Wunderground v.1.15,2013-04-13 10:48:00,
2013-04-13 05:58:00,46.7,44.8,30.00,North,360,0.0,0.0,93,0.00,,,0.00,Wunderground v.1.15,2013-04-13 10:58:00,
2013-04-13 06:03:00,46.6,44.7,30.00,North,360,0.0,0.0,93,0.00,,,0.00,Wunderground v.1.15,2013-04-13 11:03:00,
2013-04-13 06:13:00,45.9,44.0,30.01,North,360,0.0,0.0,93,0.00,,,0.00,Wunderground v.1.15,2013-04-13 11:13:00,
2013-04-13 06:18:00,45.8,44.2,30.01,North,360,0.0,0.0,94,0.00,,,0.00,Wunderground v.1.15,2013-04-13 11:18:00,
2013-04-13 06:33:00,45.5,43.9,30.01,North,360,0.0,0.0,94,0.00,,,0.00,Wunderground v.1.15,2013-04-13 11:33:00,
2013-04-13 06:43:00,45.4,44.1,30.02,North,360,0.0,0.0,95,0.00,,,0.00,Wunderground v.1.15,2013-04-13 11:43:00,
2013-04-13 06:48:00,45.3,43.7,30.02,North,360,0.0,0.0,94,0.00,,,0.00,Wunderground v.1.15,2013-04-13 11:48:00,
2013-04-13 06:53:00,45.2,43.9,30.02,North,360,0.0,0.0,95,0.00,,,0.00,Wunderground v.1.15,2013-04-13 11:53:00,
2013-04-13 06:58:00,45.1,43.8,30.02,North,360,0.0,0.0,95,0.00,,,0.00,Wunderground v.1.15,2013-04-13 11:58:00,
2013-04-13 07:03:00,45.1,43.8,30.02,North,360,0.0,0.0,95,0.00,,,0.00,Wunderground v.1.15,2013-04-13 12:03:00,
2013-04-13 07:08:00,45.1,43.8,30.02,North,360,0.0,0.0,95,0.00,,,0.00,Wunderground v.1.15,2013-04-13 12:08:00,
2013-04-13 07:13:00,45.1,43.8,30.03,North,360,0.0,0.0,95,0.00,,,0.00,Wunderground v.1.15,2013-04-13 12:13:00,
2013-04-13 07:23:00,45.1,43.8,30.03,North,360,0.0,0.0,95,0.00,,,0.00,Wunderground v.1.15,2013-04-13 12:23:00,
2013-04-13 07:28:00,45.4,44.1,30.03,North,360,0.0,0.0,95,0.00,,,0.00,Wunderground v.1.15,2013-04-13 12:28:00,
2013-04-13 07:33:00,45.6,44.3,30.03,North,360,0.0,0.0,95,0.00,,,0.00,Wunderground v.1.15,2013-04-13 12:33:00,
2013-04-13 07:38:00,46.0,44.6,30.03,North,360,0.0,0.0,95,0.00,,,0.00,Wunderground v.1.15,2013-04-13 12:38:00,
2013-04-13 07:43:00,46.5,45.4,30.03,North,360,0.0,0.0,96,0.00,,,0.00,Wunderground v.1.15,2013-04-13 12:43:00,
2013-04-13 07:48:00,47.1,46.0,30.04,North,360,0.0,0.0,96,0.00,,,0.00,Wunderground v.1.15,2013-04-13 12:48:00,
2013-04-13 07:58:00,48.4,47.3,30.04,North,360,0.0,0.0,96,0.00,,,0.00,Wunderground v.1.15,2013-04-13 12:58:00,
2013-04-13 08:03:00,49.0,47.6,30.04,North,360,0.0,0.0,95,0.00,,,0.00,Wunderground v.1.15,2013-04-13 13:03:00,
2013-04-13 08:08:00,49.7,48.3,30.04,North,360,0.0,0.0,95,0.00,,,0.00,Wunderground v.1.15,2013-04-13 13:08:00,
2013-04-13 08:13:00,50.9,48.9,30.04,North,360,0.0,0.0,93,0.00,,,0.00,Wunderground v.1.15,2013-04-13 13:13:00,
2013-04-13 08:23:00,53.7,49.9,30.04,NE,50,0.0,0.0,87,0.00,,,0.00,Wunderground v.1.15,2013-04-13 13:23:00,
2013-04-13 08:33:00,56.3,49.9,30.04,NNE,13,0.0,0.0,79,0.00,,,0.00,Wunderground v.1.15,2013-04-13 13:33:00,
2013-04-13 08:48:00,59.6,50.6,30.04,North,350,0.0,0.0,72,0.00,,,0.00,Wunderground v.1.15,2013-04-13 13:48:00,
2013-04-13 08:58:00,61.4,50.3,30.04,North,5,0.0,5.0,67,0.00,,,0.00,Wunderground v.1.15,2013-04-13 13:58:00,
2013-04-13 09:03:00,62.3,50.4,30.04,South,173,0.0,0.0,65,0.00,,,0.00,Wunderground v.1.15,2013-04-13 14:03:00,
2013-04-13 09:13:00,64.0,50.7,30.04,NNE,13,0.0,0.0,62,0.00,,,0.00,Wunderground v.1.15,2013-04-13 14:13:00,
2013-04-13 09:23:00,64.7,50.0,30.04,NNE,17,1.0,2.0,59,0.00,,,0.00,Wunderground v.1.15,2013-04-13 14:23:00,
2013-04-13 09:28:00,65.1,50.0,30.04,NNW,346,2.0,2.0,58,0.00,,,0.00,Wunderground v.1.15,2013-04-13 14:28:00,
2013-04-13 09:33:00,65.5,49.9,30.04,NE,34,1.0,1.0,57,0.00,,,0.00,Wunderground v.1.15,2013-04-13 14:33:00,
2013-04-13 09:43:00,66.6,50.9,30.04,NNE,21,1.0,1.0,57,0.00,,,0.00,Wunderground v.1.15,2013-04-13 14:43:00,
2013-04-13 09:48:00,67.5,50.3,30.04,NNE,13,1.0,1.0,54,0.00,,,0.00,Wunderground v.1.15,2013-04-13 14:48:00,
2013-04-13 09:58:00,68.6,50.8,30.04,ENE,59,1.0,1.0,53,0.00,,,0.00,Wunderground v.1.15,2013-04-13 14:58:00,
2013-04-13 10:03:00,68.8,49.4,30.04,North,11,1.0,1.0,50,0.00,,,0.00,Wunderground v.1.15,2013-04-13 15:03:00,
2013-04-13 10:13:00,68.4,50.6,30.04,SSE,155,1.0,1.0,53,0.00,,,0.00,Wunderground v.1.15,2013-04-13 15:13:00,
2013-04-13 16:22:00,77.3,56.1,29.92,SW,229,2.0,2.0,48,0.00,,,0.00,Wunderground v.1.15,2013-04-13 21:22:00,
2013-04-13 16:27:00,76.4,56.4,29.92,South,188,2.0,2.0,50,0.00,,,0.00,Wunderground v.1.15,2013-04-13 21:27:00,
2013-04-13 16:42:00,75.6,55.1,29.92,South,189,2.0,2.0,49,0.00,,,0.00,Wunderground v.1.15,2013-04-13 21:42:00,
2013-04-13 16:47:00,75.3,55.9,29.91,SW,217,1.0,2.0,51,0.00,,,0.00,Wunderground v.1.15,2013-04-13 21:47:00,
2013-04-13 16:52:00,75.2,55.3,29.91,ESE,121,1.0,1.0,50,0.00,,,0.00,Wunderground v.1.15,2013-04-13 21:52:00,
2013-04-13 16:57:00,75.2,55.3,29.91,SSW,199,1.0,1.0,50,0.00,,,0.00,Wunderground v.1.15,2013-04-13 21:57:00,
2013-04-13 17:02:00,74.8,55.5,29.91,South,176,1.0,1.0,51,0.00,,,0.00,Wunderground v.1.15,2013-04-13 22:02:00,
2013-04-13 17:07:00,74.6,55.3,29.91,South,181,0.0,1.0,51,0.00,,,0.00,Wunderground v.1.15,2013-04-13 22:07:00,
2013-04-13 17:12:00,74.4,55.6,29.91,SSE,153,0.0,0.0,52,0.00,,,0.00,Wunderground v.1.15,2013-04-13 22:12:00,
2013-04-13 17:17:00,74.5,56.2,29.90,SSE,160,0.0,0.0,53,0.00,,,0.00,Wunderground v.1.15,2013-04-13 22:17:00,
2013-04-13 17:22:00,74.6,56.3,29.90,SSE,160,0.0,0.0,53,0.00,,,0.00,Wunderground v.1.15,2013-04-13 22:22:00,
2013-04-13 17:27:00,74.3,55.0,29.90,SSE,161,0.0,0.0,51,0.00,,,0.00,Wunderground v.1.15,2013-04-13 22:27:00,
2013-04-13 17:32:00,74.3,55.5,29.90,SSE,156,1.0,1.0,52,0.00,,,0.00,Wunderground v.1.15,2013-04-13 22:32:00,
2013-04-13 17:37:00,74.2,56.0,29.90,SSW,193,1.0,1.0,53,0.00,,,0.00,Wunderground v.1.15,2013-04-13 22:37:00,
2013-04-13 17:47:00,73.4,56.2,29.90,South,184,0.0,1.0,55,0.00,,,0.00,Wunderground v.1.15,2013-04-13 22:47:00,
2013-04-13 17:52:00,72.7,55.6,29.90,SE,126,1.0,2.0,55,0.00,,,0.00,Wunderground v.1.15,2013-04-13 22:52:00,
2013-04-13 17:57:00,72.4,56.8,29.90,SSW,202,1.0,3.0,58,0.00,,,0.00,Wunderground v.1.15,2013-04-13 22:57:00,
2013-04-13 18:02:00,72.0,56.4,29.90,SW,218,1.0,1.0,58,0.00,,,0.00,Wunderground v.1.15,2013-04-13 23:02:00,
2013-04-13 18:12:00,71.2,57.1,29.90,SW,232,0.0,0.0,61,0.00,,,0.00,Wunderground v.1.15,2013-04-13 23:12:00,
2013-04-13 18:17:00,70.9,57.2,29.91,SW,225,0.0,1.0,62,0.00,,,0.00,Wunderground v.1.15,2013-04-13 23:17:00,
2013-04-13 18:22:00,70.6,57.4,29.91,South,175,0.0,1.0,63,0.00,,,0.00,Wunderground v.1.15,2013-04-13 23:22:00,
2013-04-13 18:27:00,70.3,57.1,29.90,South,177,0.0,1.0,63,0.00,,,0.00,Wunderground v.1.15,2013-04-13 23:27:00,
2013-04-13 18:32:00,69.9,57.2,29.90,South,179,0.0,0.0,64,0.00,,,0.00,Wunderground v.1.15,2013-04-13 23:32:00,
2013-04-13 18:42:00,69.5,57.2,29.89,South,179,0.0,0.0,65,0.00,,,0.00,Wunderground v.1.15,2013-04-13 23:42:00,
2013-04-13 18:52:00,68.8,57.0,29.90,South,189,0.0,0.0,66,0.00,,,0.00,Wunderground v.1.15,2013-04-13 23:52:00,
2013-04-13 18:57:00,68.5,57.1,29.90,South,189,0.0,0.0,67,0.00,,,0.00,Wunderground v.1.15,2013-04-13 23:57:00,
2013-04-13 19:02:00,68.2,57.2,29.90,WSW,238,0.0,0.0,68,0.00,,,0.00,Wunderground v.1.15,2013-04-14 00:02:00,
2013-04-13 19:12:00,67.6,56.2,29.90,SSE,167,1.0,1.0,67,0.00,,,0.00,Wunderground v.1.15,2013-04-14 00:12:00,
2013-04-13 19:17:00,67.3,56.4,29.90,South,186,0.0,1.0,68,0.00,,,0.00,Wunderground v.1.15,2013-04-14 00:17:00,
2013-04-13 19:23:00,67.0,56.5,29.89,South,186,0.0,0.0,69,0.00,,,0.00,Wunderground v.1.15,2013-04-14 00:23:00,
2013-04-13 19:28:00,66.7,56.2,29.90,South,186,0.0,0.0,69,0.00,,,0.00,Wunderground v.1.15,2013-04-14 00:28:00,
2013-04-13 19:33:00,66.4,56.3,29.90,South,186,0.0,0.0,70,0.00,,,0.00,Wunderground v.1.15,2013-04-14 00:33:00,
2013-04-13 19:38:00,66.1,56.0,29.90,South,186,0.0,0.0,70,0.00,,,0.00,Wunderground v.1.15,2013-04-14 00:38:00,
2013-04-13 19:43:00,65.8,56.1,29.90,South,186,0.0,0.0,71,0.00,,,0.00,Wunderground v.1.15,2013-04-14 00:43:00,
2013-04-13 19:48:00,65.6,56.3,29.90,South,186,0.0,0.0,72,0.00,,,0.00,Wunderground v.1.15,2013-04-14 00:48:00,
2013-04-13 19:57:00,65.0,56.1,29.90,South,186,0.0,0.0,73,0.00,,,0.00,Wunderground v.1.15,2013-04-14 00:57:00,
2013-04-13 20:02:00,64.7,55.8,29.91,South,186,0.0,0.0,73,0.00,,,0.00,Wunderground v.1.15,2013-04-14 01:02:00,
2013-04-13 20:12:00,64.2,55.7,29.91,South,186,0.0,0.0,74,0.00,,,0.00,Wunderground v.1.15,2013-04-14 01:12:00,
2013-04-13 20:17:00,64.0,55.9,29.91,South,186,0.0,0.0,75,0.00,,,0.00,Wunderground v.1.15,2013-04-14 01:17:00,
2013-04-13 20:23:00,63.7,56.0,29.92,South,186,0.0,0.0,76,0.00,,,0.00,Wunderground v.1.15,2013-04-14 01:23:00,
2013-04-13 20:32:00,63.2,55.5,29.92,South,186,0.0,0.0,76,0.00,,,0.00,Wunderground v.1.15,2013-04-14 01:32:00,
2013-04-13 20:37:00,63.0,55.7,29.92,South,186,0.0,0.0,77,0.00,,,0.00,Wunderground v.1.15,2013-04-14 01:37:00,
2013-04-13 20:42:00,62.9,55.6,29.92,South,186,0.0,0.0,77,0.00,,,0.00,Wunderground v.1.15,2013-04-14 01:42:00,
2013-04-13 20:47:00,62.8,55.5,29.92,South,186,0.0,0.0,77,0.00,,,0.00,Wunderground v.1.15,2013-04-14 01:47:00,
2013-04-13 20:52:00,62.6,55.6,29.92,South,186,0.0,0.0,78,0.00,,,0.00,Wunderground v.1.15,2013-04-14 01:52:00,
2013-04-13 20:58:00,62.3,55.7,29.92,South,186,0.0,0.0,79,0.00,,,0.00,Wunderground v.1.15,2013-04-14 01:58:00,
2013-04-13 21:03:00,62.2,55.6,29.92,South,186,0.0,0.0,79,0.00,,,0.00,Wunderground v.1.15,2013-04-14 02:03:00,
2013-04-13 21:13:00,62.0,55.8,29.93,South,186,0.0,0.0,80,0.00,,,0.00,Wunderground v.1.15,2013-04-14 02:13:00,
2013-04-13 21:18:00,61.8,55.6,29.93,South,186,0.0,0.0,80,0.00,,,0.00,Wunderground v.1.15,2013-04-14 02:18:00,
2013-04-13 21:23:00,61.5,55.6,29.93,South,186,0.0,0.0,81,0.00,,,0.00,Wunderground v.1.15,2013-04-14 02:23:00,
2013-04-13 21:33:00,60.1,55.6,29.93,South,186,0.0,0.0,85,0.00,,,0.00,Wunderground v.1.15,2013-04-14 02:33:00,
2013-04-13 21:38:00,59.8,55.6,29.93,South,186,0.0,0.0,86,0.00,,,0.00,Wunderground v.1.15,2013-04-14 02:38:00,
2013-04-13 21:43:00,59.6,55.4,29.93,South,186,0.0,0.0,86,0.00,,,0.00,Wunderground v.1.15,2013-04-14 02:43:00,
2013-04-13 21:48:00,59.6,55.4,29.93,South,186,0.0,0.0,86,0.00,,,0.00,Wunderground v.1.15,2013-04-14 02:48:00,
2013-04-13 21:53:00,59.6,55.4,29.93,South,186,0.0,0.0,86,0.00,,,0.00,Wunderground v.1.15,2013-04-14 02:53:00,
2013-04-13 22:03:00,59.5,55.6,29.93,South,186,0.0,0.0,87,0.00,,,0.00,Wunderground v.1.15,2013-04-14 03:03:00,
2013-04-13 22:13:00,59.4,55.8,29.93,South,186,0.0,0.0,88,0.00,,,0.00,Wunderground v.1.15,2013-04-14 03:13:00,
2013-04-13 22:18:00,59.4,55.8,29.93,South,186,0.0,0.0,88,0.00,,,0.00,Wunderground v.1.15,2013-04-14 03:18:00,
2013-04-13 22:23:00,59.3,55.7,29.93,South,186,0.0,0.0,88,0.00,,,0.00,Wunderground v.1.15,2013-04-14 03:23:00,
2013-04-13 22:28:00,59.3,55.7,29.93,South,186,0.0,0.0,88,0.00,,,0.00,Wunderground v.1.15,2013-04-14 03:28:00,
2013-04-13 22:38:00,59.3,56.1,29.93,South,186,0.0,0.0,89,0.00,,,0.00,Wunderground v.1.15,2013-04-14 03:38:00,
2013-04-13 22:43:00,59.0,55.8,29.92,South,186,0.0,0.0,89,0.00,,,0.00,Wunderground v.1.15,2013-04-14 03:43:00,
2013-04-13 22:48:00,58.7,55.5,29.92,South,186,0.0,0.0,89,0.00,,,0.00,Wunderground v.1.15,2013-04-14 03:48:00,
2013-04-13 22:53:00,58.6,55.7,29.92,South,186,0.0,0.0,90,0.00,,,0.00,Wunderground v.1.15,2013-04-14 03:53:00,
2013-04-13 22:58:00,58.6,55.7,29.92,South,186,0.0,0.0,90,0.00,,,0.00,Wunderground v.1.15,2013-04-14 03:58:00,
2013-04-13 23:03:00,58.6,55.7,29.91,South,186,0.0,0.0,90,0.00,,,0.00,Wunderground v.1.15,2013-04-14 04:03:00,
2013-04-13 23:08:00,58.6,55.7,29.91,South,186,0.0,0.0,90,0.00,,,0.00,Wunderground v.1.15,2013-04-14 04:08:00,
2013-04-13 23:13:00,58.7,55.8,29.91,South,186,0.0,0.0,90,0.00,,,0.00,Wunderground v.1.15,2013-04-14 04:13:00,
2013-04-13 23:18:00,58.7,55.8,29.91,South,186,0.0,0.0,90,0.00,,,0.00,Wunderground v.1.15,2013-04-14 04:18:00,
2013-04-13 23:23:00,58.9,55.7,29.92,South,186,0.0,0.0,89,0.00,,,0.00,Wunderground v.1.15,2013-04-14 04:23:00,
2013-04-13 23:28:00,59.1,55.9,29.92,South,186,0.0,0.0,89,0.00,,,0.00,Wunderground v.1.15,2013-04-14 04:28:00,
2013-04-13 23:33:00,59.2,56.0,29.92,South,186,0.0,0.0,89,0.00,,,0.00,Wunderground v.1.15,2013-04-14 04:33:00,
2013-04-13 23:42:00,59.0,56.1,29.90,South,186,0.0,0.0,90,0.00,,,0.00,Wunderground v.1.15,2013-04-14 04:42:00,
2013-04-13 23:48:00,59.1,56.2,29.90,South,186,0.0,0.0,90,0.00,,,0.00,Wunderground v.1.15,2013-04-14 04:48:00,
2013-04-13 23:53:00,59.2,56.3,29.90,South,186,0.0,0.0,90,0.00,,,0.00,Wunderground v.1.15,2013-04-14 04:53:00,
2013-04-13 23:58:00,59.3,56.1,29.90,South,186,0.0,0.0,89,0.00,,,0.00,Wunderground v.1.15,2013-04-14 04:58:00,